createdAt,value
2023-12-17T00:00:09.883Z,101688.47
2023-12-17T00:02:37.217Z,101685.91
2023-12-17T00:05:05.058Z,101691.03
2023-12-17T00:07:32.305Z,101704.81
2023-12-17T00:09:59.725Z,101697.09
2023-12-17T00:12:27.045Z,101698.84
2023-12-17T00:14:54.599Z,101688.47
2023-12-17T00:17:22.686Z,101694.69
2023-12-17T00:19:50.112Z,101687.75
2023-12-17T00:22:17.571Z,101694.69
2023-12-17T00:24:44.931Z,101668.66
2023-12-17T00:27:16.266Z,101673.97
2023-12-17T00:29:43.588Z,101701.72
2023-12-17T00:32:10.845Z,101700.78
2023-12-17T00:34:38.313Z,101695.75
2023-12-17T00:37:06.086Z,101680.31
2023-12-17T00:39:33.467Z,101687.22
2023-12-17T00:42:00.793Z,101675.28
2023-12-17T00:44:28.048Z,101673.63
2023-12-17T00:46:55.366Z,101680.53
2023-12-17T00:49:22.651Z,101664.19
2023-12-17T00:51:49.846Z,101657.09
2023-12-17T00:54:17.148Z,101677.22
2023-12-17T00:56:44.502Z,101678.13
2023-12-17T00:59:11.838Z,101667.84
2023-12-17T01:01:39.941Z,101672.25
2023-12-17T01:04:07.283Z,101684.28
2023-12-17T01:06:34.522Z,101686.03
2023-12-17T01:09:01.861Z,101691.25
2023-12-17T01:11:29.124Z,101680.97
2023-12-17T01:13:56.429Z,101670.66
2023-12-17T01:16:23.588Z,101663.72
2023-12-17T01:18:51.004Z,101682.75
2023-12-17T01:21:18.424Z,101658.38
2023-12-17T01:23:45.772Z,101679.41
2023-12-17T01:26:24.410Z,101679.50
2023-12-17T01:28:51.735Z,101675.28
2023-12-17T01:31:19.190Z,101687.28
2023-12-17T01:33:46.655Z,101679.50
2023-12-17T01:36:14.097Z,101680.47
2023-12-17T01:38:41.488Z,101688.22
2023-12-17T01:41:08.838Z,101676.28
2023-12-17T01:43:36.369Z,101671.06
2023-12-17T01:46:04.204Z,101671.16
2023-12-17T01:48:32.131Z,101669.38
2023-12-17T01:50:59.869Z,101676.28
2023-12-17T01:53:27.144Z,101672.94
2023-12-17T01:55:54.807Z,101674.66
2023-12-17T01:58:23.148Z,101669.38
2023-12-17T02:00:50.693Z,101676.44
2023-12-17T02:03:18.348Z,101672.97
2023-12-17T02:05:47.541Z,101672.88
2023-12-17T02:08:15.173Z,101690.25
2023-12-17T02:10:42.413Z,101676.38
2023-12-17T02:13:11.756Z,101683.44
2023-12-17T02:15:39.343Z,101677.31
2023-12-17T02:18:07.084Z,101685.19
2023-12-17T02:20:36.083Z,101667.81
2023-12-17T02:23:06.621Z,101681.78
2023-12-17T02:25:34.263Z,101669.75
2023-12-17T02:28:01.677Z,101663.75
2023-12-17T02:30:29.235Z,101649.09
2023-12-17T02:32:57.202Z,101647.44
2023-12-17T02:35:24.871Z,101652.75
2023-12-17T02:37:52.142Z,101646.78
2023-12-17T02:40:19.467Z,101653.69
2023-12-17T02:42:46.968Z,101654.56
2023-12-17T02:45:14.774Z,101652.91
2023-12-17T02:47:42.644Z,101649.53
2023-12-17T02:50:11.419Z,101650.41
2023-12-17T02:52:38.690Z,101649.63
2023-12-17T02:55:06.559Z,101652.19
2023-12-17T02:57:34.107Z,101666.78
2023-12-17T03:00:01.295Z,101659.91
2023-12-17T03:02:29.408Z,101660.84
2023-12-17T03:04:56.719Z,101665.13
2023-12-17T03:07:23.973Z,101657.44
2023-12-17T03:09:51.413Z,101658.34
2023-12-17T03:12:18.662Z,101652.28
2023-12-17T03:14:46.387Z,101648.13
2023-12-17T03:17:14.033Z,101646.28
2023-12-17T03:19:41.842Z,101642.78
2023-12-17T03:22:09.170Z,101657.50
2023-12-17T03:24:36.455Z,101670.34
2023-12-17T03:27:03.934Z,101674.66
2023-12-17T03:29:31.124Z,101682.38
2023-12-17T03:31:59.499Z,101679.88
2023-12-17T03:34:28.115Z,101668.78
2023-12-17T03:36:55.402Z,101685.00
2023-12-17T03:39:22.685Z,101687.59
2023-12-17T03:41:49.992Z,101678.91
2023-12-17T03:44:17.295Z,101682.47
2023-12-17T03:46:44.511Z,101695.31
2023-12-17T03:49:11.912Z,101699.66
2023-12-17T03:51:39.377Z,101702.31
2023-12-17T03:54:06.714Z,101692.88
2023-12-17T03:56:33.974Z,101703.16
2023-12-17T03:59:01.138Z,101702.25
2023-12-17T04:01:28.419Z,101699.75
2023-12-17T04:03:55.778Z,101710.94
2023-12-17T04:06:23.164Z,101695.25
2023-12-17T04:08:55.707Z,101700.59
2023-12-17T04:11:23.443Z,101696.31
2023-12-17T04:13:50.575Z,101692.94
2023-12-17T04:16:17.774Z,101698.88
2023-12-17T04:18:45.113Z,101703.22
2023-12-17T04:21:12.479Z,101706.69
2023-12-17T04:23:39.759Z,101704.97
2023-12-17T04:26:07.409Z,101702.34
2023-12-17T04:28:34.734Z,101698.09
2023-12-17T04:31:01.999Z,101694.69
2023-12-17T04:33:29.383Z,101691.25
2023-12-17T04:35:56.672Z,101689.53
2023-12-17T04:38:25.102Z,101673.00
2023-12-17T04:40:52.764Z,101673.94
2023-12-17T04:43:20.018Z,101652.91
2023-12-17T04:45:47.248Z,101686.22
2023-12-17T04:48:14.693Z,101684.47
2023-12-17T04:50:42.059Z,101668.94
2023-12-17T04:53:09.443Z,101672.50
2023-12-17T04:55:36.916Z,101675.94
2023-12-17T04:58:04.160Z,101673.38
2023-12-17T05:00:31.544Z,101679.38
2023-12-17T05:02:58.932Z,101689.75
2023-12-17T05:05:27.614Z,101675.94
2023-12-17T05:07:54.776Z,101688.91
2023-12-17T05:10:22.087Z,101689.75
2023-12-17T05:12:49.298Z,101697.59
2023-12-17T05:15:16.654Z,101694.09
2023-12-17T05:17:44.419Z,101693.25
2023-12-17T05:20:12.144Z,101680.19
2023-12-17T05:22:39.503Z,101688.97
2023-12-17T05:25:08.530Z,101697.63
2023-12-17T05:27:38.009Z,101688.16
2023-12-17T05:30:05.982Z,101681.31
2023-12-17T05:32:34.211Z,101683.03
2023-12-17T05:35:01.913Z,101683.94
2023-12-17T05:37:29.362Z,101666.72
2023-12-17T05:39:56.571Z,101675.31
2023-12-17T05:42:23.998Z,101674.50
2023-12-17T05:44:51.708Z,101657.22
2023-12-17T05:47:19.962Z,101664.28
2023-12-17T05:49:47.428Z,101648.84
2023-12-17T05:52:14.852Z,101653.06
2023-12-17T05:54:44.429Z,101652.09
2023-12-17T05:57:11.699Z,101653.84
2023-12-17T05:59:38.973Z,101650.44
2023-12-17T06:02:06.734Z,101657.22
2023-12-17T06:04:34.505Z,101657.22
2023-12-17T06:07:01.825Z,101656.50
2023-12-17T06:09:29.219Z,101646.84
2023-12-17T06:11:59.120Z,101652.09
2023-12-17T06:14:26.703Z,101647.81
2023-12-17T06:16:53.985Z,101635.78
2023-12-17T06:19:21.330Z,101652.16
2023-12-17T06:21:48.807Z,101645.22
2023-12-17T06:24:16.209Z,101648.78
2023-12-17T06:26:43.651Z,101643.63
2023-12-17T06:29:15.044Z,101625.47
2023-12-17T06:31:42.619Z,101641.94
2023-12-17T06:34:10.332Z,101638.47
2023-12-17T06:36:37.941Z,101629.91
2023-12-17T06:39:10.167Z,101638.56
2023-12-17T06:41:44.230Z,101638.56
2023-12-17T06:44:11.489Z,101647.19
2023-12-17T06:46:38.935Z,101657.50
2023-12-17T06:49:06.248Z,101645.50
2023-12-17T06:51:33.598Z,101660.13
2023-12-17T06:54:01.066Z,101664.38
2023-12-17T06:56:28.886Z,101665.31
2023-12-17T06:58:56.216Z,101666.19
2023-12-17T07:01:23.584Z,101679.88
2023-12-17T07:03:51.571Z,101671.16
2023-12-17T07:06:18.890Z,101673.16
2023-12-17T07:08:46.231Z,101692.97
2023-12-17T07:11:13.646Z,101681.81
2023-12-17T07:13:40.946Z,101685.25
2023-12-17T07:16:08.569Z,101687.03
2023-12-17T07:18:35.931Z,101690.41
2023-12-17T07:21:03.377Z,101692.19
2023-12-17T07:23:30.629Z,101702.41
2023-12-17T07:25:57.767Z,101703.25
2023-12-17T07:28:25.060Z,101709.34
2023-12-17T07:30:52.353Z,101708.53
2023-12-17T07:33:19.692Z,101705.06
2023-12-17T07:35:47.211Z,101699.13
2023-12-17T07:38:14.655Z,101697.41
2023-12-17T07:40:42.042Z,101698.31
2023-12-17T07:43:09.329Z,101686.16
2023-12-17T07:45:38.136Z,101694.91
2023-12-17T07:48:06.062Z,101709.53
2023-12-17T07:50:34.451Z,101688.84
2023-12-17T07:53:01.777Z,101691.53
2023-12-17T07:55:29.067Z,101702.63
2023-12-17T07:57:56.288Z,101692.41
2023-12-17T08:00:23.617Z,101706.97
2023-12-17T08:02:51.018Z,101704.47
2023-12-17T08:05:19.065Z,101705.34
2023-12-17T08:07:46.320Z,101718.22
2023-12-17T08:10:13.741Z,101706.28
2023-12-17T08:12:41.117Z,101693.25
2023-12-17T08:15:08.892Z,101699.38
2023-12-17T08:17:36.199Z,101705.53
2023-12-17T08:20:04.241Z,101702.19
2023-12-17T08:22:31.468Z,101700.47
2023-12-17T08:24:58.778Z,101692.66
2023-12-17T08:27:26.044Z,101691.81
2023-12-17T08:29:53.362Z,101698.94
2023-12-17T08:32:21.689Z,101699.75
2023-12-17T08:34:49.101Z,101700.66
2023-12-17T08:37:16.445Z,101714.41
2023-12-17T08:39:44.532Z,101730.78
2023-12-17T08:42:11.864Z,101730.78
2023-12-17T08:44:39.192Z,101710.00
2023-12-17T08:47:06.527Z,101710.25
2023-12-17T08:49:33.835Z,101699.94
2023-12-17T08:52:01.129Z,101716.19
2023-12-17T08:54:28.570Z,101706.66
2023-12-17T08:56:55.911Z,101713.63
2023-12-17T08:59:23.274Z,101710.31
2023-12-17T09:01:51.315Z,101706.97
2023-12-17T09:04:18.981Z,101712.88
2023-12-17T09:06:47.496Z,101722.41
2023-12-17T09:09:16.325Z,101720.75
2023-12-17T09:11:44.445Z,101713.81
2023-12-17T09:14:11.733Z,101723.25
2023-12-17T09:16:39.687Z,101734.56
2023-12-17T09:19:07.272Z,101729.34
2023-12-17T09:21:35.181Z,101735.44
2023-12-17T09:24:02.491Z,101729.41
2023-12-17T09:26:29.773Z,101729.34
2023-12-17T09:28:57.036Z,101733.75
2023-12-17T09:31:24.601Z,101729.47
2023-12-17T09:33:52.085Z,101720.03
2023-12-17T09:36:19.552Z,101731.22
2023-12-17T09:38:46.939Z,101723.47
2023-12-17T09:41:14.428Z,101715.75
2023-12-17T09:43:41.852Z,101719.25
2023-12-17T09:46:10.451Z,101713.22
2023-12-17T09:48:39.068Z,101712.34
2023-12-17T09:51:07.283Z,101702.06
2023-12-17T09:53:36.033Z,101702.13
2023-12-17T09:56:03.293Z,101703.84
2023-12-17T09:58:30.591Z,101695.31
2023-12-17T10:00:58.158Z,101684.09
2023-12-17T10:03:26.160Z,101686.72
2023-12-17T10:05:55.476Z,101700.53
2023-12-17T10:08:24.106Z,101689.31
2023-12-17T10:10:51.957Z,101685.06
2023-12-17T10:13:21.202Z,101686.88
2023-12-17T10:15:50.362Z,101693.78
2023-12-17T10:18:18.806Z,101698.94
2023-12-17T10:20:47.157Z,101697.22
2023-12-17T10:23:15.135Z,101693.78
2023-12-17T10:25:43.546Z,101697.25
2023-12-17T10:28:14.892Z,101691.22
2023-12-17T10:30:43.647Z,101685.19
2023-12-17T10:33:19.214Z,101683.47
2023-12-17T10:35:47.264Z,101685.16
2023-12-17T10:38:17.409Z,101705.88
2023-12-17T10:40:45.236Z,101710.19
2023-12-17T10:43:14.242Z,101709.25
2023-12-17T10:45:44.848Z,101715.28
2023-12-17T10:48:15.082Z,101729.94
2023-12-17T10:50:43.835Z,101724.78
2023-12-17T10:53:11.096Z,101719.63
2023-12-17T10:55:38.428Z,101711.03
2023-12-17T10:58:11.056Z,101695.38
2023-12-17T11:00:41.024Z,101720.50
2023-12-17T11:03:11.184Z,101700.66
2023-12-17T11:05:54.136Z,101701.66
2023-12-17T11:08:25.036Z,101691.34
2023-12-17T11:10:52.788Z,101698.22
2023-12-17T11:13:26.454Z,101693.13
2023-12-17T11:15:54.649Z,101687.09
2023-12-17T11:18:24.853Z,101685.34
2023-12-17T11:20:54.747Z,101687.97
2023-12-17T11:23:22.545Z,101691.44
2023-12-17T11:25:50.108Z,101690.59
2023-12-17T11:28:27.440Z,101689.75
2023-12-17T11:30:56.143Z,101694.03
2023-12-17T11:33:23.726Z,101675.19
2023-12-17T11:35:51.773Z,101686.38
2023-12-17T11:38:19.268Z,101684.59
2023-12-17T11:40:46.918Z,101671.75
2023-12-17T11:43:14.141Z,101670.91
2023-12-17T11:45:47.166Z,101671.75
2023-12-17T11:48:19.718Z,101655.44
2023-12-17T11:50:53.062Z,101645.97
2023-12-17T11:53:22.118Z,101635.69
2023-12-17T11:55:50.940Z,101631.31
2023-12-17T11:58:23.230Z,101651.19
2023-12-17T12:01:04.218Z,101641.69
2023-12-17T12:03:32.157Z,101644.31
2023-12-17T12:06:07.502Z,101629.72
2023-12-17T12:09:04.033Z,101618.53
2023-12-17T12:11:35.306Z,101615.09
2023-12-17T12:14:02.929Z,101613.38
2023-12-17T12:16:40.816Z,101597.97
2023-12-17T12:19:10.567Z,101621.19
2023-12-17T12:21:41.702Z,101635.84
2023-12-17T12:24:12.529Z,101623.81
2023-12-17T12:26:39.888Z,101628.91
2023-12-17T12:29:10.617Z,101638.44
2023-12-17T12:31:38.217Z,101630.69
2023-12-17T12:34:07.102Z,101649.59
2023-12-17T12:36:48.519Z,101656.41
2023-12-17T12:39:19.919Z,101656.41
2023-12-17T12:41:48.370Z,101659.91
2023-12-17T12:44:17.180Z,101659.84
2023-12-17T12:46:48.965Z,101654.75
2023-12-17T12:49:19.510Z,101665.06
2023-12-17T12:51:48.836Z,101663.34
2023-12-17T12:56:43.615Z,101666.78
2023-12-17T12:59:22.501Z,101661.63
2023-12-17T13:01:53.774Z,101648.66
2023-12-17T13:04:22.398Z,101643.59
2023-12-17T13:06:49.745Z,101644.44
2023-12-17T13:09:19.213Z,101656.47
2023-12-17T13:11:50.366Z,101645.28
2023-12-17T13:14:18.642Z,101644.38
2023-12-17T13:16:46.036Z,101647.88
2023-12-17T13:19:15.470Z,101658.19
2023-12-17T13:21:43.639Z,101642.72
2023-12-17T13:24:11.127Z,101637.56
2023-12-17T13:26:39.780Z,101639.28
2023-12-17T13:29:07.238Z,101628.13
2023-12-17T13:31:36.861Z,101625.53
2023-12-17T13:34:04.619Z,101641.00
2023-12-17T13:36:33.249Z,101642.78
2023-12-17T13:39:00.982Z,101646.16
2023-12-17T13:41:28.487Z,101635.78
2023-12-17T13:43:55.743Z,101630.69
2023-12-17T13:46:22.979Z,101633.28
2023-12-17T13:48:50.590Z,101645.31
2023-12-17T13:51:19.547Z,101625.53
2023-12-17T13:53:49.789Z,101615.22
2023-12-17T13:56:17.323Z,101610.00
2023-12-17T13:58:44.781Z,101607.50
2023-12-17T14:01:12.569Z,101604.75
2023-12-17T14:03:40.123Z,101615.16
2023-12-17T14:06:10.142Z,101612.66
2023-12-17T14:08:37.552Z,101611.69
2023-12-17T14:11:04.861Z,101610.88
2023-12-17T14:13:32.159Z,101606.53
2023-12-17T14:15:59.758Z,101603.88
2023-12-17T14:18:27.189Z,101596.22
2023-12-17T14:20:54.514Z,101603.13
2023-12-17T14:23:22.870Z,101597.13
2023-12-17T14:25:51.767Z,101591.06
2023-12-17T14:28:19.770Z,101585.78
2023-12-17T14:30:48.962Z,101603.94
2023-12-17T14:33:17.648Z,101600.56
2023-12-17T14:35:45.346Z,101600.50
2023-12-17T14:38:12.991Z,101606.34
2023-12-17T14:40:40.437Z,101616.84
2023-12-17T14:43:07.808Z,101611.69
2023-12-17T14:45:35.303Z,101610.81
2023-12-17T14:48:02.756Z,101613.38
2023-12-17T14:50:33.146Z,101600.50
2023-12-17T14:53:00.743Z,101594.44
2023-12-17T14:55:27.938Z,101609.94
2023-12-17T14:57:55.169Z,101613.38
2023-12-17T15:00:23.437Z,101611.56
2023-12-17T15:02:52.246Z,101610.75
2023-12-17T15:05:19.898Z,101604.69
2023-12-17T15:07:47.181Z,101589.16
2023-12-17T15:10:14.424Z,101586.63
2023-12-17T15:12:41.792Z,101592.59
2023-12-17T15:15:09.717Z,101600.34
2023-12-17T15:17:37.186Z,101608.91
2023-12-17T15:20:06.216Z,101606.34
2023-12-17T15:22:34.076Z,101596.03
2023-12-17T15:25:01.364Z,101602.78
2023-12-17T15:27:29.133Z,101603.69
2023-12-17T15:29:56.425Z,101594.31
2023-12-17T15:32:24.286Z,101608.00
2023-12-17T15:34:51.678Z,101611.44
2023-12-17T15:37:19.099Z,101617.34
2023-12-17T15:39:46.387Z,101616.53
2023-12-17T15:42:13.774Z,101600.16
2023-12-17T15:44:41.175Z,101613.94
2023-12-17T15:47:08.358Z,101582.00
2023-12-17T15:49:37.601Z,101594.16
2023-12-17T15:52:05.459Z,101594.16
2023-12-17T15:54:32.871Z,101592.47
2023-12-17T15:57:00.459Z,101592.41
2023-12-17T15:59:27.749Z,101597.50
2023-12-17T16:01:55.423Z,101583.72
2023-12-17T16:04:22.673Z,101557.53
2023-12-17T16:06:49.994Z,101603.47
2023-12-17T16:09:19.958Z,101588.03
2023-12-17T16:11:48.274Z,101588.88
2023-12-17T16:14:15.505Z,101599.19
2023-12-17T16:16:42.857Z,101599.97
2023-12-17T16:19:11.309Z,101599.97
2023-12-17T16:21:39.109Z,101591.34
2023-12-17T16:24:06.442Z,101602.53
2023-12-17T16:26:33.820Z,101592.25
2023-12-17T16:29:00.918Z,101581.06
2023-12-17T16:31:28.265Z,101581.91
2023-12-17T16:33:56.257Z,101567.25
2023-12-17T16:36:23.748Z,101581.81
2023-12-17T16:38:53.859Z,101581.69
2023-12-17T16:41:21.278Z,101581.69
2023-12-17T16:43:49.699Z,101574.81
2023-12-17T16:46:18.090Z,101594.63
2023-12-17T16:48:58.016Z,101586.03
2023-12-17T16:51:27.619Z,101592.00
2023-12-17T16:53:55.080Z,101581.69
2023-12-17T16:56:24.191Z,101564.50
2023-12-17T16:58:53.633Z,101557.59
2023-12-17T17:01:21.413Z,101557.53
2023-12-17T17:03:49.038Z,101551.53
2023-12-17T17:06:16.441Z,101566.09
2023-12-17T17:08:43.735Z,101566.91
2023-12-17T17:11:13.563Z,101549.63
2023-12-17T17:13:41.585Z,101551.38
2023-12-17T17:16:08.872Z,101540.22
2023-12-17T17:18:36.359Z,101522.03
2023-12-17T17:21:03.981Z,101526.31
2023-12-17T17:23:31.466Z,101546.00
2023-12-17T17:25:59.002Z,101537.41
2023-12-17T17:28:27.628Z,101530.38
2023-12-17T17:30:54.976Z,101533.78
2023-12-17T17:33:23.417Z,101522.47
2023-12-17T17:35:51.036Z,101532.75
2023-12-17T17:38:18.437Z,101523.25
2023-12-17T17:40:45.795Z,101534.34
2023-12-17T17:43:13.306Z,101530.78
2023-12-17T17:45:40.638Z,101511.81
2023-12-17T17:48:08.141Z,101520.38
2023-12-17T17:50:35.665Z,101538.31
2023-12-17T17:53:03.734Z,101530.44
2023-12-17T17:55:33.809Z,101503.81
2023-12-17T17:58:01.268Z,101513.19
2023-12-17T18:00:29.002Z,101521.69
2023-12-17T18:02:56.442Z,101481.72
2023-12-17T18:05:23.828Z,101504.34
2023-12-17T18:07:51.437Z,101495.69
2023-12-17T18:10:19.419Z,101486.25
2023-12-17T18:12:47.832Z,101497.38
2023-12-17T18:15:15.271Z,101499.03
2023-12-17T18:17:42.548Z,101495.56
2023-12-17T18:20:10.267Z,101488.63
2023-12-17T18:22:37.613Z,101486.00
2023-12-17T18:25:05.651Z,101472.94
2023-12-17T18:27:33.071Z,101479.84
2023-12-17T18:30:00.464Z,101488.38
2023-12-17T18:32:27.999Z,101465.91
2023-12-17T18:34:55.549Z,101483.16
2023-12-17T18:37:23.465Z,101478.00
2023-12-17T18:39:55.757Z,101470.16
2023-12-17T18:42:24.459Z,101469.31
2023-12-17T18:44:55.431Z,101474.38
2023-12-17T18:47:22.901Z,101477.78
2023-12-17T18:49:50.601Z,101471.59
2023-12-17T18:52:18.707Z,101487.09
2023-12-17T18:55:02.428Z,101484.50
2023-12-17T18:57:32.077Z,101487.09
2023-12-17T18:59:59.869Z,101492.97
2023-12-17T19:02:31.524Z,101484.38
2023-12-17T19:04:58.882Z,101478.25
2023-12-17T19:07:26.075Z,101475.66
2023-12-17T19:09:53.404Z,101466.94
2023-12-17T19:12:21.286Z,101464.41
2023-12-17T19:14:49.252Z,101468.59
2023-12-17T19:17:17.724Z,101466.00
2023-12-17T19:19:45.364Z,101464.19
2023-12-17T19:22:14.105Z,101467.59
2023-12-17T19:24:41.770Z,101471.03
2023-12-17T19:27:09.348Z,101458.03
2023-12-17T19:29:38.898Z,101456.19
2023-12-17T19:32:06.629Z,101445.81
2023-12-17T19:34:40.524Z,101449.31
2023-12-17T19:37:08.567Z,101444.09
2023-12-17T19:39:39.019Z,101455.19
2023-12-17T19:42:08.417Z,101454.38
2023-12-17T19:44:36.135Z,101445.81
2023-12-17T19:47:03.582Z,101439.75
2023-12-17T19:49:31.152Z,101435.53
2023-12-17T19:51:58.508Z,101430.34
2023-12-17T19:54:25.984Z,101436.31
2023-12-17T19:56:53.320Z,101448.31
2023-12-17T19:59:20.706Z,101449.97
2023-12-17T20:01:49.037Z,101451.66
2023-12-17T20:04:16.382Z,101444.69
2023-12-17T20:06:49.138Z,101450.72
2023-12-17T20:09:17.324Z,101453.31
2023-12-17T20:11:44.861Z,101455.94
2023-12-17T20:14:12.144Z,101447.31
2023-12-17T20:16:39.464Z,101455.88
2023-12-17T20:19:07.999Z,101445.53
2023-12-17T20:21:35.525Z,101450.63
2023-12-17T20:24:02.874Z,101448.94
2023-12-17T20:26:30.133Z,101438.53
2023-12-17T20:28:57.311Z,101436.69
2023-12-17T20:31:24.649Z,101441.91
2023-12-17T20:33:52.381Z,101439.34
2023-12-17T20:36:19.761Z,101440.19
2023-12-17T20:38:47.027Z,101444.41
2023-12-17T20:41:21.374Z,101442.59
2023-12-17T20:43:48.766Z,101439.16
2023-12-17T20:46:16.441Z,101439.94
2023-12-17T20:48:43.733Z,101434.63
2023-12-17T20:51:11.188Z,101432.88
2023-12-17T20:53:39.090Z,101420.81
2023-12-17T20:56:06.453Z,101420.81
2023-12-17T20:58:33.767Z,101414.69
2023-12-17T21:01:01.014Z,101418.09
2023-12-17T21:03:28.453Z,101411.97
2023-12-17T21:05:55.788Z,101408.56
2023-12-17T21:08:24.997Z,101397.31
2023-12-17T21:10:52.304Z,101405.09
2023-12-17T21:13:19.504Z,101408.50
2023-12-17T21:15:46.854Z,101401.59
2023-12-17T21:18:14.282Z,101396.38
2023-12-17T21:20:41.759Z,101390.25
2023-12-17T21:23:09.062Z,101390.38
2023-12-17T21:25:36.320Z,101396.38
2023-12-17T21:28:03.667Z,101386.91
2023-12-17T21:30:31.025Z,101391.16
2023-12-17T21:32:58.551Z,101386.03
2023-12-17T21:35:26.070Z,101392.81
2023-12-17T21:37:53.247Z,101379.97
2023-12-17T21:40:20.542Z,101374.03
2023-12-17T21:42:47.830Z,101384.16
2023-12-17T21:45:15.204Z,101377.25
2023-12-17T21:47:43.018Z,101376.47
2023-12-17T21:50:10.648Z,101380.66
2023-12-17T21:53:44.162Z,101382.28
2023-12-17T21:56:11.348Z,101384.81
2023-12-17T21:58:38.658Z,101390.75
2023-12-17T22:01:06.065Z,101373.34
2023-12-17T22:03:33.492Z,101390.63
2023-12-17T22:06:00.831Z,101394.13
2023-12-17T22:08:28.233Z,101388.91
2023-12-17T22:10:55.454Z,101396.69
2023-12-17T22:13:22.801Z,101393.19
2023-12-17T22:15:50.313Z,101391.47
2023-12-17T22:18:18.108Z,101409.53
2023-12-17T22:20:45.523Z,101411.16
2023-12-17T22:23:13.339Z,101406.16
2023-12-17T22:25:40.704Z,101419.88
2023-12-17T22:28:08.970Z,101396.75
2023-12-17T22:30:36.507Z,101419.97
2023-12-17T22:33:04.351Z,101409.69
2023-12-17T22:35:31.775Z,101416.69
2023-12-17T22:37:58.940Z,101414.09
2023-12-17T22:40:26.235Z,101403.09
2023-12-17T22:42:53.500Z,101404.84
2023-12-17T22:45:21.468Z,101402.31
2023-12-17T22:47:48.906Z,101400.66
2023-12-17T22:50:16.218Z,101398.13
2023-12-17T22:52:43.766Z,101389.53
2023-12-17T22:55:11.349Z,101380.72
2023-12-17T22:57:38.770Z,101396.56
2023-12-17T23:00:09.617Z,101389.69
2023-12-17T23:02:36.989Z,101388.16
2023-12-17T23:05:04.283Z,101389.88
2023-12-17T23:07:31.547Z,101371.81
2023-12-17T23:09:58.879Z,101379.59
2023-12-17T23:12:26.216Z,101367.66
2023-12-17T23:14:53.495Z,101370.16
2023-12-17T23:17:20.882Z,101364.13
2023-12-17T23:19:48.233Z,101369.25
2023-12-17T23:22:15.636Z,101369.31
2023-12-17T23:24:42.913Z,101362.47
2023-12-17T23:27:10.359Z,101369.31
2023-12-17T23:29:37.757Z,101359.06
2023-12-17T23:32:05.346Z,101359.06
2023-12-17T23:34:32.723Z,101364.31
2023-12-17T23:37:00.073Z,101365.09
2023-12-17T23:39:27.464Z,101346.19
2023-12-17T23:41:54.813Z,101356.63
2023-12-17T23:44:22.128Z,101355.84
2023-12-17T23:46:49.578Z,101352.31
2023-12-17T23:49:17.031Z,101355.84
2023-12-17T23:51:44.304Z,101349.84
2023-12-17T23:54:11.713Z,101344.72
2023-12-17T23:56:44.133Z,101338.69
2023-12-17T23:59:11.899Z,101338.69
